Duke — WDG9333 — position and weather

sailwx.info

Track history (hours):
 
Tides and Currents Weather Stations Pressure Air Temp Water Temp Dewpoint Dewpoint Depression Visibility Wind Speed Wind Dir Waves Ship Positions

Duke

Owner: Harley Marine Services, Inc, Seattle, WA. More information available from US FCC via Universal Licensing System and Coast Guard Vessel Documentation Center.

Last reported at 2017-Nov-14 20:54 UTC. Time now 2017-Nov-22 01:42 UTC.
Position N 29°33' W 090°24'.

Length 26 m; draft 2.6 m.

Type: Ship (hazmat cat A). MMSI: 367586750.

Date/timePositionNaut miles runAvg speedWind from/ knotsBaromVisibWave heightAir tempDewpointWater temp
2017-Nov-14 20:54N 29°33' W 090°24'2 4.7
2017-Nov-14 20:30N 29°33' W 090°26'2 5.0
2017-Nov-14 20:00N 29°34' W 090°29'3 5.2
2017-Nov-14 19:30N 29°34' W 090°32'3 5.1
2017-Nov-14 19:00N 29°34' W 090°35'2 4.8
2017-Nov-14 18:30N 29°35' W 090°37'2 4.9
2017-Nov-14 18:00N 29°36' W 090°40'2 4.7
2017-Nov-14 17:30N 29°37' W 090°42'3 5.1
2017-Nov-14 17:01N 29°34' W 090°43'2 4.0
2017-Nov-14 16:30N 29°33' W 090°45'3 5.2
2017-Nov-14 16:00N 29°32' W 090°48'3 6.2
2017-Nov-14 15:30N 29°32' W 090°51'3 6.0
2017-Nov-14 14:59N 29°33' W 090°55'3 5.9
2017-Nov-14 14:25N 29°35' W 090°58'51 4.6
2017-Nov-14 03:17N 29°51' W 091°54'2 5.7
2017-Nov-14 02:59N 29°51' W 091°56'3 5.5
2017-Nov-14 02:29N 29°50' W 091°59'3 5.8
2017-Nov-14 01:59N 29°49' W 092°03'3 5.5
2017-Nov-14 01:30N 29°48' W 092°05'3 5.7
2017-Nov-14 01:00N 29°47' W 092°09'2 4.7
2017-Nov-14 00:30N 29°47' W 092°11'1 2.7
2017-Nov-13 23:59N 29°47' W 092°13'1 1.5
2017-Nov-13 23:29N 29°48' W 092°13'1 2.2
2017-Nov-13 22:59N 29°48' W 092°15'0 0.1
2017-Nov-13 22:30N 29°48' W 092°15'0 0.0
2017-Nov-13 22:00N 29°48' W 092°15'76 3.6
2017-Nov-13 01:04N 30°04' W 093°40'0 5.4
2017-Nov-13 00:59N 30°04' W 093°41'  
2017-Nov-10 16:30N 29°58' W 093°12'3 5.8
2017-Nov-10 16:00N 29°56' W 093°10'3 6.1
2017-Nov-10 15:30N 29°56' W 093°06'4 6.4
2017-Nov-10 14:57N 29°56' W 093°02'28 6.0
2017-Nov-10 10:18N 29°54' W 092°30'2 6.3
2017-Nov-10 09:59N 29°54' W 092°28'3 6.3
2017-Nov-10 09:30N 29°53' W 092°24'3 5.5
2017-Nov-10 09:00N 29°52' W 092°22'3 5.6
2017-Nov-10 08:30N 29°50' W 092°19'3 5.9
2017-Nov-10 08:00N 29°49' W 092°16'3 6.3
2017-Nov-10 07:30N 29°47' W 092°13'2 3.6
2017-Nov-10 07:00N 29°47' W 092°11'3 6.2
2017-Nov-10 06:30N 29°47' W 092°07'3 6.2
2017-Nov-10 06:00N 29°48' W 092°04'3 6.3
2017-Nov-10 05:30N 29°49' W 092°01'3 6.4
2017-Nov-10 05:00N 29°50' W 091°57'52 6.0
2017-Nov-09 20:18N 29°37' W 090°59'3 6.5
2017-Nov-09 19:49N 29°34' W 090°57'2 6.6
2017-Nov-09 19:30N 29°33' W 090°55'3 6.3
2017-Nov-09 19:00N 29°32' W 090°51'3 6.4
2017-Nov-09 18:30N 29°32' W 090°48'3 5.2
2017-Nov-09 18:00N 29°33' W 090°45'2 5.0
2017-Nov-09 17:30N 29°35' W 090°43'2 4.2
2017-Nov-09 17:00N 29°37' W 090°41'0 0.0
2017-Nov-09 16:30N 29°37' W 090°41'0 0.0
2017-Nov-09 16:00N 29°37' W 090°41'0 0.0
2017-Nov-09 15:30N 29°37' W 090°41'3 5.4
2017-Nov-09 15:00N 29°35' W 090°39'3 5.3
2017-Nov-09 14:30N 29°35' W 090°36'0 0.0
2017-Nov-09 13:58N 29°35' W 090°36'0 0.1
2017-Nov-09 13:30N 29°35' W 090°36'2 4.4
2017-Nov-09 13:00N 29°34' W 090°33'3 6.7
2017-Nov-09 12:30N 29°34' W 090°29'3 6.6
2017-Nov-09 12:00N 29°33' W 090°26'  
Track history (hours):
 
Tides and Currents Weather Stations Pressure Air Temp Water Temp Dewpoint Dewpoint Depression Visibility Wind Speed Wind Dir Waves Ship Positions

Duke

Owner: Harley Marine Services, Inc, Seattle, WA. More information available from US FCC via Universal Licensing System and Coast Guard Vessel Documentation Center.

Last reported at 2017-Nov-14 20:54 UTC. Time now 2017-Nov-22 01:42 UTC.
Position N 29°33' W 090°24'.

Length 26 m; draft 2.6 m.

Type: Ship (hazmat cat A). MMSI: 367586750.

Date/timePositionNaut miles runAvg speedWind from/ knotsBaromVisibWave heightAir tempDewpointWater temp
2017-Nov-14 20:54N 29°33' W 090°24'2 4.7
2017-Nov-14 20:30N 29°33' W 090°26'2 5.0
2017-Nov-14 20:00N 29°34' W 090°29'3 5.2
2017-Nov-14 19:30N 29°34' W 090°32'3 5.1
2017-Nov-14 19:00N 29°34' W 090°35'2 4.8
2017-Nov-14 18:30N 29°35' W 090°37'2 4.9
2017-Nov-14 18:00N 29°36' W 090°40'2 4.7
2017-Nov-14 17:30N 29°37' W 090°42'3 5.1
2017-Nov-14 17:01N 29°34' W 090°43'2 4.0
2017-Nov-14 16:30N 29°33' W 090°45'3 5.2
2017-Nov-14 16:00N 29°32' W 090°48'3 6.2
2017-Nov-14 15:30N 29°32' W 090°51'3 6.0
2017-Nov-14 14:59N 29°33' W 090°55'3 5.9
2017-Nov-14 14:25N 29°35' W 090°58'51 4.6
2017-Nov-14 03:17N 29°51' W 091°54'2 5.7
2017-Nov-14 02:59N 29°51' W 091°56'3 5.5
2017-Nov-14 02:29N 29°50' W 091°59'3 5.8
2017-Nov-14 01:59N 29°49' W 092°03'3 5.5
2017-Nov-14 01:30N 29°48' W 092°05'3 5.7
2017-Nov-14 01:00N 29°47' W 092°09'2 4.7
2017-Nov-14 00:30N 29°47' W 092°11'1 2.7
2017-Nov-13 23:59N 29°47' W 092°13'1 1.5
2017-Nov-13 23:29N 29°48' W 092°13'1 2.2
2017-Nov-13 22:59N 29°48' W 092°15'0 0.1
2017-Nov-13 22:30N 29°48' W 092°15'0 0.0
2017-Nov-13 22:00N 29°48' W 092°15'76 3.6
2017-Nov-13 01:04N 30°04' W 093°40'0 5.4
2017-Nov-13 00:59N 30°04' W 093°41'  
2017-Nov-10 16:30N 29°58' W 093°12'3 5.8
2017-Nov-10 16:00N 29°56' W 093°10'3 6.1
2017-Nov-10 15:30N 29°56' W 093°06'4 6.4
2017-Nov-10 14:57N 29°56' W 093°02'28 6.0
2017-Nov-10 10:18N 29°54' W 092°30'2 6.3
2017-Nov-10 09:59N 29°54' W 092°28'3 6.3
2017-Nov-10 09:30N 29°53' W 092°24'3 5.5
2017-Nov-10 09:00N 29°52' W 092°22'3 5.6
2017-Nov-10 08:30N 29°50' W 092°19'3 5.9
2017-Nov-10 08:00N 29°49' W 092°16'3 6.3
2017-Nov-10 07:30N 29°47' W 092°13'2 3.6
2017-Nov-10 07:00N 29°47' W 092°11'3 6.2
2017-Nov-10 06:30N 29°47' W 092°07'3 6.2
2017-Nov-10 06:00N 29°48' W 092°04'3 6.3
2017-Nov-10 05:30N 29°49' W 092°01'3 6.4
2017-Nov-10 05:00N 29°50' W 091°57'52 6.0
2017-Nov-09 20:18N 29°37' W 090°59'3 6.5
2017-Nov-09 19:49N 29°34' W 090°57'2 6.6
2017-Nov-09 19:30N 29°33' W 090°55'3 6.3
2017-Nov-09 19:00N 29°32' W 090°51'3 6.4
2017-Nov-09 18:30N 29°32' W 090°48'3 5.2
2017-Nov-09 18:00N 29°33' W 090°45'2 5.0
2017-Nov-09 17:30N 29°35' W 090°43'2 4.2
2017-Nov-09 17:00N 29°37' W 090°41'0 0.0
2017-Nov-09 16:30N 29°37' W 090°41'0 0.0
2017-Nov-09 16:00N 29°37' W 090°41'0 0.0
2017-Nov-09 15:30N 29°37' W 090°41'3 5.4
2017-Nov-09 15:00N 29°35' W 090°39'3 5.3
2017-Nov-09 14:30N 29°35' W 090°36'0 0.0
2017-Nov-09 13:58N 29°35' W 090°36'0 0.1
2017-Nov-09 13:30N 29°35' W 090°36'2 4.4
2017-Nov-09 13:00N 29°34' W 090°33'3 6.7
2017-Nov-09 12:30N 29°34' W 090°29'3 6.6
2017-Nov-09 12:00N 29°33' W 090°26'  

Dump ship's entire track history